Cou Falls, Iowa
Current Conditions -  °F | °C
As of 11:52 PM on Friday 28 Nov 2014 (Local Time) from KCID Reporting Station
Haze Haze  
Wind Chill: -8°   Ceiling: Unl
Heat Index: -3°   Visibility: 4mi
Dew Point: -3°   Wind: 9mph
Humidity: 96%   Direction: 120°ESE
Pressure: 29.7"   Gusts: NA
Location:  41.8309°N, 91.7193°W
Report Text: KCID 290552Z AUTO 12008KT 4SM BR CLR M03/M03 A2970 RMK AO2 SLP067 T10281033 11017 21033 400001111 57028
Loading
Personal Weather Stations






























Interactive Weather Map New forecast layout! Learn more

10-Day Weather Forecast

Advertisements
Track Severe Weather on mobile